Tiempo atmosférico en la estación meteorológica de Calanda, Teruel (459 m.)



Fecha
DESCASC
Temp. máxima en grados centígrados (hora)
DESCASC
Temp. mínima en grados centígrados (hora)
DESCASC
Temp. media en grados centígrados
DESCASC
Racha de viento máxima en m/sg (hora)
DESCASC
Velocidad máxima media en intervalos de 10 minutos(hora)
DESCASC
Precipitaciones diarias en mm
DESCASC
Precipitaciones de 00:00 a 06:00 en mm
DESCASC
Precipitaciones de 06:00 a 12:00 en mm
DESCASC
Precipitaciones de 12:00 a 18:00 en mm
DESCASC
Precipitaciones de 18:00 a 24:00 en mm
DESCASC
10-09-2019 21.4 (00:00) 12.8 (19:00) 17.1 15.83 (11:40) 10.28 (11:40) 4.2 0 0 0 4.2
13-09-2019 25.9 (15:30) 14.5 (00:00) 20.2 10 (15:40) 6.11 (15:40) 2.8 0 0 0 2.8
01-09-2019 31.2 (16:30) 19.5 (00:00) 25.4 9.72 (22:50) 6.11 (22:50) 1 0 0 0 1
21-08-2019 28.8 (15:50) 17.4 (00:00) 23.1 5.83 (21:10) 3.33 (21:00) 0.2 0 0 0 0.2
05-09-2019 25 (16:30) 15.2 (00:00) 20.1 15 (10:40) 8.89 (10:40) 0 0 0 0 0
19-09-2019 29.4 (17:00) 16.1 (00:00) 22.8 9.72 (19:50) 5.56 (17:30) 0.8 0 0 0.8 0
18-09-2019 29 (14:50) 16.5 (00:00) 22.8 10.28 (16:30) 5.28 (16:40) 0.6 0 0 0.6 0
17-09-2019 31.3 (17:00) 17.6 (00:00) 24.4 15 (22:50) 10 (23:10) 0 0 0 0 0
16-09-2019 30.5 (18:10) 18.8 (00:00) 24.6 6.94 (16:00) 3.89 (17:00) 0 0 0 0 0
15-09-2019 31.1 (16:10) 14.6 (00:00) 22.9 10.28 (17:20) 6.94 (17:20) 0 0 0 0 0
14-09-2019 27.5 (17:50) 13.9 (00:00) 20.7 7.5 (17:10) 5 (17:10) 0.2 0.2 0 0 0
12-09-2019 27.3 (17:50) 13.5 (00:00) 20.4 6.11 (14:30) 3.61 (00:40) 0 0 0 0 0
11-09-2019 22.1 (18:00) 13.5 (00:00) 17.8 11.39 (04:20) 6.67 (01:00) 5.8 0.2 2.6 3 0
09-09-2019 -- (--) -- (--) -- -- (--) -- (--) -- -- -- 0 0
04-09-2019 30.5 (17:40) 15.3 (00:00) 22.9 10.56 (22:10) 5.83 (22:40) 0 0 0 0 0
03-09-2019 29 (17:50) 13.5 (00:00) 21.3 7.78 (14:50) 3.33 (23:10) 0 0 0 0 0
02-09-2019 26.9 (16:50) 15.5 (00:00) 21.2 9.17 (10:50) 6.11 (11:00) 0.6 0.6 0 0 0
31-08-2019 36 (17:30) 20.2 (00:00) 28.1 -- (--) -- (--) 0 0 0 0 0
30-08-2019 35.4 (17:10) 20.2 (00:00) 27.8 -- (--) -- (--) 0 0 0 0 0
29-08-2019 34.6 (17:50) 17.9 (00:00) 26.2 6.11 (16:50) 4.17 (05:10) 0 0 0 0 0
28-08-2019 31.4 (18:00) 16.4 (00:00) 23.9 5.83 (16:30) 3.33 (06:20) 0 0 0 0 0
27-08-2019 28.9 (17:20) 16.4 (00:00) 22.6 10 (02:00) 6.11 (02:50) 5.8 4.4 1.4 0 0
26-08-2019 31 (16:20) 21.9 (00:00) 26.4 14.72 (20:40) 7.78 (20:00) 0 0 0 0 0
25-08-2019 36.6 (16:10) 19 (00:00) 27.8 11.94 (23:40) 6.39 (17:50) 0 0 0 0 0
24-08-2019 34.8 (16:00) 18.6 (00:00) 26.7 10.28 (15:50) 5.28 (21:10) 0 0 0 0 0
23-08-2019 33.6 (16:40) 16.5 (00:00) 25 10 (23:40) 5.28 (23:40) 0 0 0 0 0
22-08-2019 30.1 (17:10) 15 (00:00) 22.6 6.39 (16:10) 3.61 (02:00) 0 0 0 0 0
06-09-2019 -- (--) -- (--) -- -- (--) -- (--) -- 0 0 0 --
07-09-2019 -- (--) -- (--) -- -- (--) -- (--) -- -- -- 0 --
08-09-2019 -- (--) -- (--) -- -- (--) -- (--) -- -- -- 0 --

Gráficas

Temp. máximas Temp. mínimas Temp. medias Precipitaciones Rachas de viento máximas Velocidades máximas media en intervalos de 10 minutos

Datos horarios

Fecha y hora oficial Temperatura (ºC) Velocidad del viento (km/h) Dirección del viento Racha (km/h) Dirección de racha Precipitación (mm) Presión (hPa) Tendencia (hPa) Humedad (%)
2019-09-19 23:00:00 21.4 5 Sur 22 Sur 0 963.9 1.3 63
2019-09-19 22:00:00 21.9 9 Sur 26 Sudeste 0 963.5 1.5 64
2019-09-19 21:00:00 21.9 8 Sur 29 Sur 0 962.9 0.7 64
2019-09-19 20:00:00 22.4 16 Sur 35 Sur 0 962.6 0.6 58
2019-09-19 19:00:00 23 12 Sur 28 Sur 0 962 -0.1 56
2019-09-19 18:00:00 25 14 Sur 31 Sur 0.8 962.2 -0.7 64
2019-09-19 17:00:00 29 7 Nordeste 21 Norte 0 962 -1.8 33
2019-09-19 16:00:00 28.7 10 Norte 20 Norte 0 962.1 -2.2 33
2019-09-19 15:00:00 27.7 5 Nordeste 14 Norte 0 962.9 -2 37
2019-09-19 14:00:00 25.9 8 Norte 15 Nordeste 0 963.8 -1.2 42
2019-09-19 13:00:00 24.5 5 Nordeste 11 Norte 0 964.3 -0.5 45
2019-09-19 12:00:00 24.4 3 Oeste 8 Oeste 0 964.9 0.4 45
2019-09-19 11:00:00 22.4 3 Noroeste 11 Sudeste 0 965 1 51
2019-09-19 10:00:00 20.2 7 Sur 12 Sudoeste 0 964.8 1.1 55
2019-09-19 09:00:00 17.4 9 Sudoeste 17 Sudoeste 0 964.5 1 66
2019-09-19 08:00:00 16.6 13 Sudoeste 20 Sudoeste 0 964 0.3 69
2019-09-19 07:00:00 16.3 9 Sur 22 Sudoeste 0 963.7 -0.3 70
2019-09-19 06:00:00 16.8 5 Sur 12 Sudoeste 0 963.5 -0.5 66
2019-09-19 05:00:00 17.5 9 Sudoeste 17 Sudoeste 0 963.7 -0.2 63
2019-09-19 04:00:00 17.7 12 Sudoeste 19 Sudoeste 0 964 0.4 62
2019-09-19 03:00:00 18.1 6 Sur 11 Sudoeste 0 964 0.3 61
2019-09-19 02:00:00 18.8 9 Sudoeste 17 Sudoeste 0 963.9 0.5 62
2019-09-19 01:00:00 19 10 Sudoeste 14 Sudoeste 0 963.6 0.3 58
2019-09-19 00:00:00 19.8 5 Sudoeste 11 Sudoeste 0 963.7 1.2 58
2019-09-18 23:00:00 19.8 3 Sudoeste 10 Sudeste 0 963.4 1 65
2019-09-18 22:00:00 21.2 7 Norte 22 Sur 0 963.3 1.4 58
2019-09-18 21:00:00 22.6 10 Sur 20 Sudoeste 0 962.5 0.2 52
2019-09-18 20:00:00 23.3 11 Sur 21 Sudoeste 0 962.4 -0.5 50
2019-09-18 19:00:00 24.7 8 Sudoeste 16 Sudoeste 0 961.9 -0.3 46
2019-09-18 18:00:00 24.7 6 Sudeste 19 Oeste 0.6 962.3 -0.1 50
2019-09-18 17:00:00 22.2 10 Sudeste 37 Sudeste 0 962.9 0.1 53
2019-09-18 16:00:00 28.1 6 Nordeste 15 Este 0 962.2 -1.2 27
2019-09-18 15:00:00 28.1 5 Nordeste 17 Este 0 962.4 -1 29
2019-09-18 14:00:00 28.3 5 Este 11 Nordeste 0 962.8 -1.1 29
2019-09-18 13:00:00 26.1 5 Noroeste 14 Norte 0 963.4 -0.1 34
2019-09-18 12:00:00 24.4 5 Norte 17 Este 0 963.4 1 39
2019-09-18 11:00:00 21.1 9 Sudoeste 21 Sudeste 0 963.9 1.8 48
2019-09-18 10:00:00 20.5 11 Sudoeste 25 Sudoeste 0 963.5 1.6 46
2019-09-18 09:00:00 18.8 11 Sudoeste 25 Sudoeste 0 962.4 0.8 52
2019-09-18 08:00:00 17.1 12 Sudoeste 19 Sudoeste 0 962.1 0.3 58
2019-09-18 07:00:00 17.1 9 Sudoeste 14 Sudoeste 0 961.9 0.4 58
2019-09-18 06:00:00 17.5 7 Oeste 15 Sudoeste 0 961.6 -0.1 57
2019-09-18 05:00:00 18.7 11 Sudoeste 18 Sudoeste 0 961.8 0 53
2019-09-18 04:00:00 19.4 6 Oeste 15 Sur 0 961.5 -0.3 52
2019-09-18 03:00:00 20 9 Sudoeste 13 Sudoeste 0 961.7 -1.1 51
2019-09-18 02:00:00 21.5 8 Sudoeste 16 Sur 0 961.8 -1.7 45
2019-09-18 01:00:00 22.1 7 Sudeste 24 Sudoeste 0 961.8 0 43
2019-09-18 00:00:00 22.2 16 Sudoeste 54 Sudoeste 0 962.8 2 44
2019-09-17 23:00:00 24.5 30 Sudoeste 54 Sudoeste 0 963.5 3 33
2019-09-17 22:00:00 24.8 9 Sur 16 Sudoeste 0 961.8 1.4 42
2019-09-17 21:00:00 25.7 5 Sur 13 Sudeste 0 960.8 -0.1 39
2019-09-15 18:00:00 28 16 Sudeste 37 Este 0 965.8 -0.8 41
2019-09-15 17:00:00 29.3 13 Nordeste 31 Este 0 965.5 -1.7 34
2019-09-15 16:00:00 30.6 7 Este 20 Nordeste 0 965.8 -2.3 31
2019-09-15 15:00:00 28.6 11 Nordeste 23 Norte 0 966.6 -2 37
2019-09-15 14:00:00 27.3 10 Nordeste 19 Nordeste 0 967.2 -1.7 37
2019-09-15 13:00:00 25.2 9 Norte 15 Norte 0 968.1 -0.7 38
2019-09-15 12:00:00 25 5 Nordeste 15 Este 0 968.6 -0.1 40
2019-09-15 11:00:00 23.3 4 Sudeste 11 Sudoeste 0 968.9 0.4 48
2019-09-15 10:00:00 20.2 10 Sudoeste 15 Sudoeste 0 968.8 0.5 54
2019-09-15 09:00:00 16.6 4 Sur 10 Sudoeste 0 968.7 0.5 65
2019-09-15 08:00:00 14.9 8 Sudoeste 13 Sudoeste 0 968.5 0.3 70
2019-09-15 07:00:00 14.7 4 Sudoeste 9 Sudoeste 0 968.3 -0.6 75
2019-09-15 06:00:00 15 2 Oeste 8 Sudoeste 0 968.2 -1.4 73
2019-09-15 05:00:00 16.4 0 Calma 13 Sudoeste 0 968.2 -1.4 63
2019-09-15 04:00:00 18 9 Sur 14 Sudoeste 0 968.9 -0.8 53
2019-09-15 03:00:00 16.9 9 Sudoeste 12 Sudoeste 0 969.6 -0.2 59
2019-09-15 02:00:00 16.9 6 Sudoeste 9 Sudoeste 0 969.6 0 62
2019-09-15 01:00:00 17.5 6 Sudoeste 12 Sudoeste 0 969.7 0.2 59
2019-09-15 00:00:00 17.3 3 Oeste 9 Oeste 0 969.8 0.5 66
2019-09-14 23:00:00 18.4 7 Oeste 9 Oeste 0 969.6 0.7 61
2019-09-14 22:00:00 19.7 5 Este 10 Este 0 969.5 0.7 49
2019-09-14 21:00:00 21.1 3 Este 13 Este 0 969.3 0.5 44
2019-09-14 20:00:00 23.2 8 Este 18 Este 0 968.9 -0.1 36
2019-09-14 19:00:00 24.8 9 Este 19 Este 0 968.8 -0.9 32
2019-09-14 18:00:00 27.1 11 Este 27 Este 0 968.8 -1.8 28
2019-09-14 17:00:00 27.2 13 Este 26 Sudeste 0 969 -2.2 29
2019-09-14 16:00:00 24.9 4 Este 13 Norte 0 969.7 -1.8 41
2019-09-14 15:00:00 24 6 Norte 11 Norte 0 970.6 -1.8 53
2019-09-14 14:00:00 22.2 7 Norte 17 Norte 0 971.2 -1.4 60
2019-09-14 13:00:00 20.7 10 Norte 17 Norte 0 971.5 -1.1 69
2019-09-14 12:00:00 19.4 2 Nordeste 13 Norte 0 972.4 0.3 72
2019-09-14 11:00:00 18.6 4 Nordeste 8 Nordeste 0 972.6 0.9 75
2019-09-14 10:00:00 16.8 5 Sudoeste 18 Sudoeste 0 972.6 0.9 84
2019-09-14 09:00:00 15 10 Sudoeste 15 Sudoeste 0 972.1 0.2 92
2019-09-14 08:00:00 14.1 9 Sudoeste 14 Sudoeste 0 971.7 0 92
2019-09-14 07:00:00 14.1 7 Sudoeste 20 Sudoeste 0 971.7 -0.4 93
2019-09-14 06:00:00 14 10 Sudoeste 18 Sudoeste 0 971.9 -0.5 96
2019-09-14 05:00:00 14.2 4 Oeste 9 Noroeste 0 971.7 -1.2 96
2019-09-14 04:00:00 15 6 Sudoeste 12 Sudoeste 0 972.1 -0.9 95
2019-09-14 03:00:00 15.1 5 Sudoeste 10 Sudoeste 0.2 972.4 -0.4 96
2019-09-14 02:00:00 15.9 4 Oeste 6 Noroeste 0 972.9 -0.1 95
2019-09-14 01:00:00 16.8 4 Noroeste 9 Norte 0 973 -0.3 95
2019-09-14 00:00:00 17.4 6 Oeste 15 Sur 1.6 972.8 0.3 93
2019-09-13 23:00:00 18.2 5 Sudeste 18 Este 1.2 973 1.5 86
2019-09-13 22:00:00 19.9 12 Sudeste 24 Sudeste 0 973.3 1.5 67
2019-09-13 21:00:00 21 7 Sur 13 Sudeste 0 972.5 0.8 62
2019-09-13 20:00:00 22.6 9 Sudeste 17 Sudeste 0 971.5 -0.6 50
2019-09-13 19:00:00 23.8 11 Este 22 Este 0 971.8 -0.1 39
2019-09-13 18:00:00 25.3 10 Este 21 Este 0 971.7 -1.3 35
2019-09-13 17:00:00 25.2 11 Este 26 Este 0 972.1 -1.4 37
2019-09-13 16:00:00 24.8 11 Nordeste 36 Este 0 971.9 -1.4 41
2019-09-13 15:00:00 23.2 14 Este 27 Este 0 973 -1.5 49
2019-09-13 14:00:00 22.4 11 Este 30 Este 0 973.5 -0.7 50
2019-09-13 13:00:00 20.7 8 Este 17 Nordeste 0 973.3 0 54
2019-09-13 12:00:00 20.1 4 Sudeste 13 Sudeste 0 974.5 2.3 52
2019-09-13 11:00:00 19.2 3 Este 10 Oeste 0 974.2 1.5 56
2019-09-13 10:00:00 17.9 3 Norte 12 Sudeste 0 973.3 0.2 58
2019-09-13 09:00:00 17.3 4 Oeste 10 Oeste 0 972.2 -1 59
2019-09-13 08:00:00 15.8 7 Oeste 12 Sudoeste 0 972.7 -0.6 65
2019-09-13 07:00:00 14.5 8 Oeste 12 Sudoeste 0 973.1 0.1 71
2019-09-13 06:00:00 15.4 0 Calma 11 Norte 0 973.2 0.2 65
2019-09-13 05:00:00 15.9 5 Oeste 8 Oeste 0 973.3 -0.7 62
2019-09-13 04:00:00 17.8 6 Norte 10 Norte 0 973 -1.2 51
2019-09-13 03:00:00 19.5 4 Sudeste 14 Sur 0 973 -0.9 43
2019-09-13 02:00:00 19.5 10 Sur 20 Sur 0 974 0.3 46
2019-09-13 01:00:00 19.9 11 Sur 24 Sur 0 974.2 1.1 46
2019-09-13 00:00:00 20.5 9 Sur 21 Sur 0 973.9 1.1 48
2019-09-12 23:00:00 20.6 7 Sur 17 Sur 0 973.7 0.9 49
2019-09-12 22:00:00 20.4 5 Sur 7 Oeste 0 973.1 0.2 51
2019-09-12 21:00:00 21.8 4 Oeste 7 Oeste 0 972.8 0.1 49
2019-09-12 20:00:00 24.8 6 Noroeste 13 Noroeste 0 972.8 -0.1 36
2019-09-12 19:00:00 26.3 5 Noroeste 16 Norte 0 972.9 -0.4 31
2019-09-12 18:00:00 27.1 4 Norte 13 Norte 0 972.7 -1.2 29
2019-09-12 17:00:00 26.2 6 Norte 16 Nordeste 0 972.9 -1.7 31
2019-09-12 16:00:00 25.2 9 Norte 20 Norte 0 973.3 -1.6 32
2019-09-12 15:00:00 24.7 9 Norte 22 Norte 0 973.9 -1.5 34
2019-09-12 14:00:00 22.9 10 Norte 19 Noroeste 0 974.6 -0.9 41
2019-09-12 13:00:00 22.5 9 Noroeste 16 Noroeste 0 974.9 -0.4 42
2019-09-12 12:00:00 21.4 5 Noroeste 15 Norte 0 975.4 0.7 43
2019-09-12 11:00:00 20 5 Oeste 11 Oeste 0 975.5 2.1 48
2019-09-12 10:00:00 18.3 5 Oeste 15 Sudoeste 0 975.3 2 56
2019-09-12 09:00:00 15.4 10 Sudoeste 15 Sudoeste 0 974.7 1.3 69
2019-09-12 08:00:00 13.5 6 Oeste 11 Sudoeste 0 973.4 0 77
2019-09-12 07:00:00 14.3 5 Sudoeste 12 Oeste 0 973.3 0.2 74
2019-09-12 06:00:00 14.8 7 Sudoeste 14 Sudoeste 0 973.4 0.3 70
2019-09-12 05:00:00 14.3 7 Sudoeste 14 Sudoeste 0 973.4 1.1 73
2019-09-12 04:00:00 13.9 4 Sudoeste 9 Oeste 0 973.1 1.6 76
2019-09-12 03:00:00 14.6 3 Sudoeste 12 Sur 0 973.1 1.6 72
2019-09-12 02:00:00 14.9 5 Sudeste 14 Noroeste 0 972.3 1.1 70
2019-09-12 01:00:00 16.3 9 Noroeste 21 Noroeste 0 971.5 0.5 63
2019-09-12 00:00:00 16.7 12 Noroeste 19 Oeste 0 971.5 1.5 73
2019-09-11 23:00:00 16.4 3 Sudoeste 12 Oeste 0 971.2 1.8 86
2019-09-11 22:00:00 17 4 Noroeste 9 Sudeste 0 971 1.9 86
2019-09-11 21:00:00 18.3 5 Sudeste 9 Sudeste 0 970 1.4 79
2019-09-11 20:00:00 20.4 2 Norte 9 Noroeste 0 969.4 1.2 63
2019-09-11 19:00:00 21 4 Norte 13 Norte 0 969.1 0.9 58
2019-09-11 18:00:00 21.6 5 Norte 13 Norte 0 968.6 0.2 54
2019-09-11 17:00:00 21.4 5 Sudeste 10 Este 0 968.2 -0.5 53
2019-09-11 16:00:00 20.8 4 Noroeste 11 Sur 0 968.2 0 49
2019-09-11 15:00:00 17.7 6 Sur 13 Sudeste 0 968.4 0.4 70
2019-09-11 14:00:00 15.8 4 Noroeste 14 Noroeste 0.8 968.7 1.7 75
2019-09-11 13:00:00 15.7 9 Noroeste 17 Noroeste 2.2 968.2 2.4 77
2019-09-11 12:00:00 14.6 4 Noroeste 22 Noroeste 1.6 968 3.3 80
2019-09-11 11:00:00 14.8 15 Noroeste 30 Noroeste 0.2 967 3.6 75
2019-09-11 10:00:00 14.4 17 Noroeste 30 Noroeste 0.2 965.8 3.3 73
2019-09-11 09:00:00 14.5 15 Noroeste 33 Noroeste 0 964.7 2.7 71
2019-09-11 08:00:00 14.3 23 Noroeste 37 Noroeste 0 963.4 1.5 72
2019-09-11 07:00:00 13.6 20 Oeste 38 Noroeste 0.6 962.5 0.6 77
2019-09-11 06:00:00 14.3 23 Noroeste 41 Oeste 0 962 0 70
2019-09-11 05:00:00 14.2 22 Noroeste 41 Noroeste 0 961.9 -0.6 69
2019-09-11 04:00:00 14 21 Noroeste 38 Noroeste 0 961.9 0 73
2019-09-11 03:00:00 13.8 18 Noroeste 36 Oeste 0 962 0.7 72
2019-09-11 02:00:00 13.5 18 Noroeste 36 Noroeste 0.2 962.5 1.9 76
2019-09-11 01:00:00 13.8 24 Noroeste 39 Noroeste 0 961.9 1.9 73
2019-09-11 00:00:00 13.8 22 Noroeste 46 Noroeste 0.2 961.3 1.2 74
2019-09-10 23:00:00 14.9 26 Noroeste 46 Oeste 0 960.6 1.5 65
2019-09-10 22:00:00 14.2 20 Oeste 34 Oeste 0.4 960 1.2 73
2019-09-10 21:00:00 14.2 21 Noroeste 33 Noroeste 0.6 960.1 2.4 76
2019-09-10 20:00:00 14.4 6 Oeste 17 Noroeste 0.2 959.1 1.5 76
2019-09-10 19:00:00 12.8 7 Sudeste 41 Noroeste 2.8 958.8 0.7 83
2019-09-10 18:00:00 18.6 28 Noroeste 55 Noroeste 0 957.7 -0.6 41
2019-09-10 17:00:00 20.4 31 Noroeste 55 Noroeste 0 957.6 -1.1 30
2019-09-10 16:00:00 18.7 33 Noroeste 53 Noroeste 0 958.1 -0.8 33
2019-09-10 15:00:00 19.5 34 Noroeste 57 Noroeste 0 958.3 -0.9 31
2019-09-10 14:00:00 19.5 34 Noroeste 56 Noroeste 0 958.7 -0.7 31
2019-09-10 13:00:00 19.2 29 Noroeste 55 Oeste 0 958.9 -0.8 31
2019-09-10 12:00:00 18 31 Noroeste 57 Noroeste 0 959.2 0.1 34
2019-09-10 11:00:00 17 28 Oeste 50 Oeste 0 959.4 0.4 39
2019-09-10 10:00:00 14.7 29 Noroeste 44 Oeste 0 959.7 1.4 49
2019-09-10 09:00:00 14.3 22 Oeste 41 Noroeste 0 959.1 1.3 53
2019-09-10 08:00:00 14.6 21 Noroeste 42 Noroeste 0 959 1 54
2019-09-10 07:00:00 15.6 23 Noroeste 41 Noroeste 0 958.3 0.2 54
2019-09-10 06:00:00 16.2 17 Noroeste 36 Noroeste 0 957.8 -0.6 55
2019-09-10 05:00:00 16.6 18 Oeste 34 Oeste 0 958 -0.3 51
2019-09-10 04:00:00 17.2 16 Oeste 34 Oeste 0 958.1 -0.1 45
2019-09-10 03:00:00 17.5 12 Oeste 21 Oeste 0 958.4 0.4 47
2019-09-10 02:00:00 19.1 10 Oeste 20 Oeste 0 958.3 0.7 42
2019-09-10 01:00:00 20.6 7 Oeste 28 Noroeste 0 958.2 1 37
2019-09-10 00:00:00 21.4 17 Noroeste 31 Noroeste 0 958 0.7 36
2019-09-09 23:00:00 22.6 10 Oeste 22 Noroeste 0 957.6 0.3 35
2019-09-09 22:00:00 23.2 8 Sur 16 Sudeste 0 957.2 -0.3 59
2019-09-09 21:00:00 24.2 11 Sudeste 24 Sur 0 957.3 -0.6 54
2019-09-09 20:00:00 26 4 Sudoeste 14 Norte 0 957.3 -1.3 18
2019-09-09 19:00:00 27.3 10 Norte 24 Norte 0 957.5 -1.7 15
2019-09-09 18:00:00 27.9 9 Norte 18 Norte 0 957.9 -2.6 20
2019-09-09 17:00:00 27.4 8 Nordeste 23 Norte 0 958.6 -2.9 21
2019-09-09 16:00:00 27.6 12 Norte 23 Nordeste 0 959.2 -3.4 23
2019-09-09 15:00:00 26.5 10 Norte 21 Nordeste 0 960.5 -3.1 26
2019-09-09 14:00:00 24.5 7 Nordeste 16 Nordeste 0 961.5 -2.4 27
2019-09-09 13:00:00 22.4 5 Norte 15 Norte 0 962.6 -0.9 30
2019-09-09 12:00:00 21 5 Nordeste 14 Nordeste 0 963.6 0.1 32
2019-09-09 11:00:00 18.9 7 Nordeste -- -- -- 963.9 -- 38
2019-09-09 10:00:00 17.2 4 Norte 8 Norte 0 963.5 -- 41
2019-09-09 09:00:00 13.8 -- -- -- -- -- 963.5 -- 51
2019-09-09 08:00:00 -- -- -- -- -- -- -- -- --
2019-09-09 07:00:00 -- -- -- -- -- -- -- -- --
2019-09-09 06:00:00 -- -- -- -- -- -- -- -- --
2019-09-09 05:00:00 -- -- -- -- -- -- -- -- --
2019-09-09 04:00:00 -- -- -- -- -- -- -- -- --
2019-09-09 03:00:00 -- -- -- -- -- -- -- -- --
2019-09-09 02:00:00 -- -- -- -- -- -- -- -- --
2019-09-09 01:00:00 -- -- -- -- -- -- -- -- --
2019-09-09 00:00:00 -- -- -- -- -- -- -- -- --
2019-09-08 23:00:00 -- -- -- -- -- -- -- -- --
2019-09-08 22:00:00 -- -- -- -- -- -- -- -- --
2019-09-08 21:00:00 -- -- -- -- -- -- -- -- --
2019-09-08 20:00:00 -- -- -- -- -- -- -- -- --
2019-09-08 19:00:00 -- -- -- -- -- -- -- -- --
2019-09-08 18:00:00 26.4 15 Norte 31 Norte 0 962.5 -1.5 26
2019-09-08 17:00:00 26.4 16 Noroeste 27 Noroeste 0 962.9 -1.4 27
2019-09-08 16:00:00 26.2 12 Noroeste 28 Noroeste 0 963.5 -1.2 27
2019-09-08 15:00:00 25.3 14 Noroeste 31 Noroeste 0 964 -1.5 29
2019-09-08 14:00:00 24.4 12 Norte 28 Noroeste 0 964.3 -1.6 31
2019-09-08 13:00:00 23.3 13 Noroeste 31 Noroeste 0 964.7 -1.5 33
2019-09-08 12:00:00 21.8 12 Noroeste 25 Noroeste 0 965.5 -0.4 39
2019-09-08 11:00:00 20.2 9 Oeste 21 Noroeste 0 965.9 -- 46
2019-09-08 10:00:00 18.5 13 Noroeste 20 Noroeste 0 966.2 -- 51
2019-09-08 09:00:00 15.9 -- -- -- -- -- 965.9 -- 59
2019-09-08 08:00:00 -- -- -- -- -- -- -- -- --
2019-09-08 07:00:00 -- -- -- -- -- -- -- -- --
2019-09-08 06:00:00 -- -- -- -- -- -- -- -- --
2019-09-08 05:00:00 -- -- -- -- -- -- -- -- --
2019-09-08 04:00:00 -- -- -- -- -- -- -- -- --
2019-09-08 03:00:00 -- -- -- -- -- -- -- -- --
2019-09-08 02:00:00 -- -- -- -- -- -- -- -- --
2019-09-08 01:00:00 -- -- -- -- -- -- -- -- --
2019-09-08 00:00:00 -- -- -- -- -- -- -- -- --
2019-09-07 23:00:00 -- -- -- -- -- -- -- -- --
2019-09-07 22:00:00 -- -- -- -- -- -- -- -- --
2019-09-07 21:00:00 -- -- -- -- -- -- -- -- --
2019-09-07 20:00:00 -- -- -- -- -- -- -- -- --
2019-09-07 19:00:00 -- -- -- -- -- -- -- -- --
2019-09-07 18:00:00 25 8 Noroeste 26 Noroeste 0 964.5 -1.8 23
2019-09-07 17:00:00 25.1 13 Noroeste 24 Noroeste 0 964.9 -2.2 25
2019-09-07 16:00:00 24.4 9 Norte 35 Noroeste 0 965.5 -2 26
2019-09-07 15:00:00 23.8 9 Nordeste 23 Norte 0 966.3 -1.9 28
2019-09-07 14:00:00 23.1 5 Norte 22 Noroeste 0 967.1 -1.6 29
2019-09-07 13:00:00 21.1 10 Noroeste 18 Norte 0 967.5 -- 33
2019-09-07 12:00:00 20.4 7 Sur 18 Noroeste 0 968.2 -- 35
2019-09-07 11:00:00 18.7 8 Noroeste -- -- -- 968.7 -- 39
2019-09-07 10:00:00 -- -- -- -- -- -- -- -- --
2019-09-07 09:00:00 -- -- -- -- -- -- -- -- --
2019-09-07 08:00:00 -- -- -- -- -- -- -- -- --
2019-09-07 07:00:00 -- -- -- -- -- -- -- -- --
2019-09-07 06:00:00 -- -- -- -- -- -- -- -- --
2019-09-07 05:00:00 -- -- -- -- -- -- -- -- --
2019-09-07 04:00:00 -- -- -- -- -- -- -- -- --
2019-09-07 03:00:00 -- -- -- -- -- -- -- -- --
2019-09-07 02:00:00 -- -- -- -- -- -- -- -- --
2019-09-07 01:00:00 -- -- -- -- -- -- -- -- --
2019-09-07 00:00:00 -- -- -- -- -- -- -- -- --
2019-09-06 23:00:00 -- -- -- -- -- -- -- -- --
2019-09-06 22:00:00 -- -- -- -- -- -- -- -- --
2019-09-06 21:00:00 -- -- -- -- -- -- -- -- --
2019-09-06 20:00:00 -- -- -- -- -- -- -- -- --
2019-09-06 19:00:00 -- -- -- -- -- -- -- -- --
2019-09-06 18:00:00 -- -- -- -- -- -- -- -- --
2019-09-06 17:00:00 24.4 13 Norte 32 Noroeste 0 965.4 -1.6 23
2019-09-06 16:00:00 24.3 16 Noroeste 34 Norte 0 966 -1.5 25
2019-09-06 15:00:00 23.8 12 Noroeste 32 Noroeste 0 966.6 -1.5 27
2019-09-06 14:00:00 22.6 15 Noroeste 30 Noroeste 0 967 -1.2 29
2019-09-06 13:00:00 21.6 10 Noroeste 35 Noroeste 0 967.5 -1 31
2019-09-06 12:00:00 20.2 13 Noroeste 27 Noroeste 0 968.1 -0.4 34
2019-09-06 11:00:00 18.7 11 Oeste 27 Oeste 0 968.2 -0.2 40
2019-09-06 10:00:00 16.7 16 Oeste 26 Oeste 0 968.5 0.5 46
2019-09-06 09:00:00 14.1 10 Oeste 19 Sudoeste 0 968.5 0.7 55
2019-09-06 08:00:00 12.1 10 Sudoeste 17 Sudoeste 0 968.4 0.6 63
2019-09-06 07:00:00 11.8 8 Sudoeste 16 Sudoeste 0 968 0.3 63
2019-09-06 06:00:00 12.4 9 Oeste 18 Oeste 0 967.8 0.2 62
2019-09-06 05:00:00 13 12 Oeste 21 Oeste 0 967.8 -0.4 59
2019-09-06 04:00:00 13.4 11 Oeste -- -- 0 967.7 -0.5 57
2019-09-06 03:00:00 13.7 11 Oeste 22 Oeste 0 967.6 -0.6 56
2019-09-06 02:00:00 14.1 10 Oeste 18 Oeste 0 968.2 0.4 53
2019-09-06 01:00:00 14.2 7 Sudoeste 16 Oeste 0 968.2 0.6 54
2019-09-06 00:00:00 15.6 12 Oeste 35 Oeste 0 968.2 1.2 50
2019-09-05 23:00:00 16.5 16 Oeste 29 Oeste 0 967.8 1.6 46
2019-09-05 22:00:00 17.5 17 Oeste 32 Oeste 0 967.6 1.8 42
2019-09-05 21:00:00 18.8 17 Noroeste 36 Noroeste 0 967 1.3 37
2019-09-05 20:00:00 20.9 24 Noroeste 45 Noroeste 0 966.2 0.3 30
2019-09-05 19:00:00 22.9 28 Noroeste 47 Noroeste 0 965.8 -0.6 26
2019-09-05 18:00:00 23.9 24 Noroeste 44 Oeste 0 965.7 -0.9 22
2019-09-05 17:00:00 24.5 25 Noroeste 48 Noroeste 0 965.9 -1 24
2019-09-05 16:00:00 24.5 24 Noroeste 46 Noroeste 0 966.4 -0.9 25
2019-09-05 15:00:00 24 26 Noroeste 48 Noroeste 0 966.6 -1.2 26
2019-09-05 14:00:00 23.1 28 Noroeste 49 Oeste 0 966.9 -1 26
2019-09-05 13:00:00 22.4 26 Noroeste 46 Oeste 0 967.3 -0.5 30
2019-09-05 12:00:00 21.3 26 Noroeste 47 Noroeste 0 967.8 0.3 34
2019-09-05 11:00:00 20 28 Oeste 54 Noroeste 0 967.9 0.9 43
2019-09-05 10:00:00 19.1 30 Noroeste 51 Noroeste 0 967.8 1.2 47
2019-09-05 09:00:00 17.4 21 Oeste 42 Noroeste 0 967.5 1.3 59
2019-09-05 08:00:00 16.6 12 Oeste 23 Oeste 0 967 0.6 61
2019-09-05 07:00:00 15.7 9 Oeste 24 Sudoeste 0 966.6 0.1 59
2019-09-05 06:00:00 15.5 12 Oeste 19 Oeste 0 966.2 -0.3 58
2019-09-05 05:00:00 15.6 8 Sudoeste 18 Oeste 0 966.4 -0.4 58
2019-09-05 04:00:00 16.2 8 Oeste 20 Oeste 0 966.5 -0.2 56
2019-09-05 03:00:00 16.8 9 Oeste 26 Oeste 0 966.5 0.1 54
2019-09-05 02:00:00 18 13 Oeste 28 Oeste 0 966.8 0.9 46
2019-09-05 01:00:00 18.8 10 Oeste -- -- 0 966.7 1.5 45
2019-09-05 00:00:00 20.1 19 Oeste 36 Oeste 0 966.4 2.4 42
2019-09-04 23:00:00 21.5 20 Oeste 38 Noroeste 0 965.9 2.4 40
2019-09-04 22:00:00 23.1 19 Noroeste 35 Noroeste 0 965.2 1.8 36
2019-09-04 21:00:00 25.3 5 Noroeste 23 Noroeste 0 964 0.5 19
2019-09-04 20:00:00 28.1 17 Noroeste 27 Noroeste 0 963.5 -0.3 17
2019-09-04 19:00:00 29.6 14 Noroeste 22 Noroeste 0 963.4 -0.8 19
2019-09-04 18:00:00 30.3 8 Noroeste 27 Noroeste 0 963.5 -1.2 19
2019-09-04 17:00:00 30.1 12 Noroeste 22 Norte 0 963.8 -1.5 18
2019-09-04 16:00:00 29.9 10 Noroeste 20 Norte 0 964.2 -1.6 20
2019-09-04 15:00:00 28.8 12 Norte 21 Norte 0 964.7 -1.9 22
2019-09-04 14:00:00 27.4 9 Norte 18 Noroeste 0 965.3 -1.5 26
2019-09-04 13:00:00 26.6 5 Norte 14 Norte 0 965.8 -0.9 26
2019-09-04 12:00:00 25.1 5 Noroeste 13 Noroeste 0 966.6 0.3 29
2019-09-04 11:00:00 23.3 3 Este 12 Norte 0 966.8 0.5 34
2019-09-04 10:00:00 21.5 5 Norte 13 Sudoeste 0 966.7 0.6 39
2019-09-04 09:00:00 18.2 12 Sudoeste 17 Sudoeste 0 966.3 0.3 55
2019-09-04 08:00:00 15.9 9 Sudoeste 16 Sudoeste 0 966.3 0 58
2019-09-04 07:00:00 15.4 9 Sur 14 Sudoeste 0 966.1 -0.5 58
2019-09-04 06:00:00 16.1 10 Sudoeste 13 Sudoeste 0 966 -1 59
2019-09-04 05:00:00 17.4 5 Noroeste 17 Sudoeste 0 966.3 -0.8 55
2019-09-04 04:00:00 17.7 9 Oeste -- -- 0 966.6 -0.6 55
2019-09-04 03:00:00 18.2 9 Sudoeste 17 Sudoeste 0 967 -0.2 54
2019-09-04 02:00:00 18.6 12 Sudoeste 17 Sudoeste 0 967.1 0.1 49
2019-09-04 01:00:00 19.3 10 Sudoeste -- -- 0 967.2 0.5 42
2019-09-04 00:00:00 19.5 12 Sudoeste -- -- 0 967.2 0.9 38
2019-09-03 23:00:00 20 4 Sur 12 Oeste 0 967 1 34
2019-09-03 22:00:00 21.3 3 Oeste 7 Sudoeste 0 966.7 0.9 31
2019-09-03 21:00:00 24.6 4 Norte 9 Norte 0 966.3 0.3 26
2019-09-03 20:00:00 27.5 6 Norte 19 Norte 0 966 -0.4 21
2019-09-03 19:00:00 28.3 9 Norte 17 Norte 0 965.8 -1 20
2019-09-03 18:00:00 28.5 6 Nordeste 23 Nordeste 0 966 -1.3 22
2019-09-03 17:00:00 27.9 12 Norte 22 Norte 0 966.4 -1.4 25
2019-09-03 16:00:00 27.8 7 Nordeste 21 Norte 0 966.8 -1.7 26
2019-09-03 15:00:00 26.5 8 Nordeste 28 Noroeste 0 967.3 -1.6 28
2019-09-03 14:00:00 24.9 9 Norte 21 Norte 0 967.8 -1.4 30
2019-09-03 13:00:00 23.6 6 Noroeste 19 Norte 0 968.5 -0.9 33
2019-09-03 12:00:00 22.7 5 Noroeste 15 Noroeste 0 968.9 -0.4 33
2019-09-03 11:00:00 20.9 9 Noroeste 15 Norte 0 969.2 -0.1 37
2019-09-03 10:00:00 19.1 8 Oeste 14 Sudoeste 0 969.4 0.6 43
2019-09-03 09:00:00 16.7 8 Sudoeste 13 Sudoeste 0 969.3 0.8 54
2019-09-03 08:00:00 13.7 8 Sudoeste 13 Sudoeste 0 969.3 0.7 66
2019-09-03 07:00:00 14 9 Sudoeste 13 Sudoeste 0 968.8 0.2 63
2019-09-03 06:00:00 14.3 6 Sudoeste 15 Sudoeste 0 968.5 -0.3 62
2019-09-03 05:00:00 14.8 6 Sudoeste 17 Sudoeste 0 968.6 -0.2 60
2019-09-03 04:00:00 15.6 11 Sudoeste 18 Sudoeste 0 968.6 0.2 57
2019-09-03 03:00:00 15 8 Sudoeste 13 Sudoeste 0 968.8 0.7 59
2019-09-03 02:00:00 16.3 9 Sudoeste 13 Sudoeste 0 968.8 1.1 55
2019-09-03 01:00:00 17.4 7 Oeste 16 Oeste 0 968.4 1.6 50
2019-09-03 00:00:00 18.8 10 Oeste 26 Noroeste 0 968.1 2 44
2019-09-02 23:00:00 18.9 6 Oeste 18 Noroeste 0 967.7 2.2 41
2019-09-02 22:00:00 20.8 11 Noroeste 20 Noroeste 0 966.8 1.5 33
2019-09-02 21:00:00 22.2 12 Noroeste 27 Noroeste 0 966.1 0.8 28
2019-09-02 20:00:00 24.5 15 Noroeste 27 Noroeste 0 965.5 -0.1 27
2019-09-02 19:00:00 26 15 Norte 28 Norte 0 965.3 -0.6 25
2019-09-02 18:00:00 26.7 18 Noroeste 30 Noroeste 0 965.3 -0.9 22
2019-09-02 17:00:00 26.8 17 Noroeste 31 Norte 0 965.6 -1.3 22
2019-09-02 16:00:00 25.9 15 Norte 30 Noroeste 0 965.9 -1.5 23
2019-09-02 15:00:00 25.4 14 Noroeste 28 Norte 0 966.2 -1.4 27
2019-09-02 14:00:00 24 17 Noroeste 31 Noroeste 0 966.9 -1 31
2019-09-02 13:00:00 22.7 18 Noroeste 28 Noroeste 0 967.4 -0.4 37
2019-09-02 12:00:00 21.3 15 Noroeste 28 Noroeste 0 967.6 0.3 43
2019-09-02 11:00:00 19.5 22 Noroeste 33 Noroeste 0 967.9 1.2 49
2019-09-02 10:00:00 18.4 6 Noroeste 19 Oeste 0 967.8 1.9 64
2019-09-02 09:00:00 17 6 Oeste 16 Noroeste 0 967.3 1.9 75
2019-09-02 08:00:00 15.5 4 Noroeste 14 Noroeste 0 966.7 1.4 80
2019-09-02 07:00:00 16.2 12 Noroeste 24 Noroeste 0 965.9 0.5 76
2019-09-02 06:00:00 17.1 5 Noroeste 9 Noroeste 0 965.4 0.2 83
2019-09-02 05:00:00 17.7 4 Noroeste 20 Oeste 0 965.3 0.5 81
2019-09-02 04:00:00 18.2 11 Oeste 27 Sudoeste 0 965.4 0.5 79
2019-09-02 03:00:00 18.2 17 Sudoeste 31 Sudoeste 0.2 965.2 0.5 81
2019-09-02 02:00:00 19 5 Oeste 21 Noroeste 0.2 964.8 0.1 84
2019-09-02 01:00:00 19.5 13 Oeste 22 Oeste 0.2 964.9 1.2 76
2019-09-02 00:00:00 19.5 9 Oeste 28 Oeste 0.8 964.7 2.4 86
2019-09-01 23:00:00 20.9 18 Oeste 35 Oeste 0.2 964.7 3.1 72
2019-09-01 22:00:00 23.9 18 Noroeste 29 Noroeste 0 963.7 2 45
2019-09-01 21:00:00 24.2 6 Sur 12 Sudoeste 0 962.3 1.5 52
2019-09-01 20:00:00 24.9 6 Sur 19 Sur 0 961.6 1 50
2019-09-01 19:00:00 26.9 12 Noroeste 21 Norte 0 961.7 0.9 39
2019-09-01 18:00:00 28.2 14 Noroeste 24 Norte 0 960.8 -0.6 33
2019-09-01 17:00:00 29.3 16 Noroeste 28 Noroeste 0 960.6 -1.1 31
2019-09-01 16:00:00 30.2 14 Noroeste 27 Noroeste 0 960.8 -1.4 30
2019-09-01 15:00:00 29.7 14 Noroeste 26 Noroeste 0 961.4 -1.1 32
2019-09-01 14:00:00 28.9 10 Noroeste 22 Noroeste 0 961.7 -0.9 34
2019-09-01 13:00:00 28.3 8 Norte 19 Norte 0 962.2 -0.1 37
2019-09-01 12:00:00 26.6 9 Norte 18 Norte 0 962.5 0.5 42
2019-09-01 11:00:00 24.5 11 Norte 19 Norte 0 962.6 0.7 48
2019-09-01 10:00:00 24.8 6 Oeste 12 Oeste 0 962.3 0.5 44
2019-09-01 09:00:00 22.8 5 Sudoeste 9 Sudoeste 0 962 0.3 48
2019-09-01 08:00:00 20.3 0 Calma 5 Nordeste 0 961.9 0.3 58
2019-09-01 07:00:00 21.1 0 Calma 6 Noroeste 0 961.8 0.4 53
2019-09-01 06:00:00 22.3 3 Oeste 17 Noroeste 0 961.7 0.4 50
2019-09-01 05:00:00 22.9 3 Oeste -- -- 0 961.6 0 47
2019-09-01 04:00:00 24.3 8 Oeste 13 Oeste 0 961.4 -0.1 37
2019-09-01 03:00:00 25.2 9 Sur 21 Sur 0 961.3 -0.3 34
2019-09-01 02:00:00 25 9 Sudoeste 14 Sudoeste 0 961.6 0 36
2019-09-01 01:00:00 25.5 4 Sur 14 Sudoeste 0 961.5 -0.1 34
2019-09-01 00:00:00 25.1 7 Sudoeste 11 Oeste 0 961.6 0.5 38
2019-08-31 23:00:00 25.6 4 Sudoeste 8 Nordeste 0 961.6 1 40
2019-08-31 22:00:00 27.3 5 Nordeste 17 Nordeste 0 961.6 1.6 37
2019-08-31 21:00:00 28.3 11 Nordeste 30 Norte 0 961.1 1.2 31
2019-08-31 20:00:00 31.6 14 Nordeste 31 Nordeste 0 960.6 0.6 28
2019-08-31 19:00:00 34.2 13 Nordeste 26 Nordeste 0 960 -1 20
2019-08-31 18:00:00 35.8 9 Nordeste 23 Norte 0 959.9 -1.8 14
2019-08-31 17:00:00 35.3 9 Norte 21 Norte 0 960 -2.3 15
2019-08-31 16:00:00 35.5 8 Norte 20 Noroeste 0 961 -2 14
2019-08-31 15:00:00 35.4 6 Este 16 Nordeste 0 961.7 -1.8 15
2019-08-31 14:00:00 33.9 6 Nordeste 16 Norte 0 962.3 -1.6 19
2019-08-31 13:00:00 33.8 5 Sur 11 Sudeste 0 963 -0.8 20
2019-08-31 12:00:00 32 3 Este 10 Sur 0 963.5 -0.2 22
2019-08-31 11:00:00 29.5 4 Sudeste 13 Sudeste 0 963.9 0.4 28
2019-08-31 10:00:00 26.1 8 Sur 14 Sudoeste 0 963.8 0.4 34
2019-08-31 09:00:00 22.2 12 Sudoeste 21 Sudoeste 0 963.7 0.5 48
2019-08-31 08:00:00 20.5 13 Sudoeste 21 Sudoeste 0 963.5 0.1 52
2019-08-31 07:00:00 20.4 13 Sudoeste 19 Sudoeste 0 963.4 -0.1 53
2019-08-31 06:00:00 20.9 11 Sudoeste 17 Sudoeste 0 963.2 -0.7 52
2019-08-31 05:00:00 21.5 9 Sudoeste -- -- 0 963.4 -0.8 52
2019-08-31 04:00:00 23.3 10 Sudoeste -- -- 0 963.5 -0.9 47
2019-08-31 03:00:00 23.7 11 Sur 15 Sur 0 963.9 -0.9 46
2019-08-31 02:00:00 23.9 5 Sur -- -- 0 964.2 -0.9 47
2019-08-31 01:00:00 24.4 -- -- -- -- 0 964.4 -0.4 46
2019-08-31 00:00:00 24.7 6 Sudoeste 13 Sudoeste 0 964.8 0.7 47
2019-08-30 23:00:00 26.3 8 Sudoeste 22 Sur 0 965.1 1.3 45
2019-08-30 22:00:00 27.2 11 Sur 27 Sur 0 964.8 1 44
2019-08-30 21:00:00 28.5 14 Sur 30 Sudeste 0 964.1 0.6 39
2019-08-30 20:00:00 29.9 16 Sudeste 29 Sudeste 0 963.8 0 35
2019-08-30 19:00:00 32 18 Sudeste 33 Sur 0 963.8 -1 29
2019-08-30 18:00:00 34.6 10 Norte 22 Nordeste 0 963.5 -1.9 20
2019-08-30 17:00:00 35.3 5 Noroeste 15 Norte 0 963.8 -2.5 18
2019-08-30 16:00:00 34.3 7 Nordeste 15 Nordeste 0 964.8 -2.2 21
2019-08-30 15:00:00 33.5 5 Nordeste 18 Nordeste 0 965.4 -1.9 23
2019-08-30 14:00:00 31.9 9 Norte 21 Norte 0 966.3 -1.2 27
2019-08-30 13:00:00 30.3 6 Norte 15 Norte 0 967 -0.5 32
2019-08-30 12:00:00 28.5 8 Norte 15 Norte 0 967.3 0 34
2019-08-30 11:00:00 28.6 3 Nordeste 9 Oeste 0 967.5 0.3 33
2019-08-30 10:00:00 26.2 5 Sur 14 Sudoeste 0 967.5 0.9 39
2019-08-30 09:00:00 21.9 12 Sudoeste 17 Sudoeste 0 967.3 1.1 53
2019-08-30 08:00:00 20.4 11 Sudoeste 19 Sudoeste 0 967.2 1.2 58
2019-08-30 07:00:00 20.4 13 Sudoeste 17 Sudoeste 0 966.6 0.6 58
2019-08-30 06:00:00 21.2 7 Sudoeste 15 Sudoeste 0 966.2 0 56
2019-08-30 05:00:00 21.5 8 Sudoeste 12 Sudoeste 0 966 -0.4 56
2019-08-30 04:00:00 22 3 Oeste -- -- 0 966 -0.2 54
2019-08-30 03:00:00 23.4 8 Sur -- -- 0 966.2 0 45
2019-08-30 02:00:00 24 11 Sudoeste -- -- 0 966.4 0.5 42
2019-08-30 01:00:00 24.9 8 Sudoeste 18 Sudoeste 0 966.2 0.9 48
2019-08-30 00:00:00 25.6 12 Sur 17 Sur 0 966.2 1.3 47
2019-08-29 23:00:00 26.2 4 Sur 21 Sur 0 965.9 1.3 46
2019-08-29 22:00:00 26.9 4 Sur 10 Sudoeste 0 965.3 0.8 42
2019-08-29 21:00:00 28.7 3 Oeste 12 Norte 0 964.9 0.4 28
2019-08-29 20:00:00 31.5 8 Norte 14 Norte 0 964.6 -0.1 21
2019-08-29 19:00:00 31.5 9 Norte 17 Nordeste 0 964.5 -0.6 23
2019-08-29 18:00:00 33.3 5 Este 21 Norte 0 964.5 -1.2 19
2019-08-29 17:00:00 33.2 10 Norte 22 Norte 0 964.7 -1.3 20
2019-08-29 16:00:00 32.8 6 Norte 21 Norte 0 965.1 -1.4 23
2019-08-29 15:00:00 31.4 8 Norte 17 Nordeste 0 965.7 -0.8 26
2019-08-29 14:00:00 31.5 5 Norte 16 Norte 0 966 -0.6 28
2019-08-29 13:00:00 28.6 8 Norte 15 Norte 0 966.5 0 37
2019-08-29 12:00:00 27.8 6 Noroeste 13 Norte 0 966.5 0.2 43
2019-08-29 11:00:00 26.5 5 Norte 9 Norte 0 966.6 0.7 44
2019-08-29 10:00:00 25.1 3 Este 15 Sudoeste 0 966.5 0.9 48
2019-08-29 09:00:00 21.2 10 Sudoeste 15 Sudoeste 0 966.3 1.2 63
2019-08-29 08:00:00 18.2 6 Oeste 10 Oeste 0 965.9 1.3 79
2019-08-29 07:00:00 19 4 Oeste 13 Oeste 0 965.6 1 73
2019-08-29 06:00:00 20 8 Oeste 22 Sudoeste 0 965.1 0.6 68
2019-08-29 05:00:00 21.1 10 Sudoeste 18 Sur 0 964.6 0.1 66
2019-08-29 04:00:00 21.8 6 Sudoeste 13 Sur 0 964.6 0.1 61
2019-08-29 03:00:00 22.3 7 Sur 19 Sudoeste 0 964.5 -0.1 63
2019-08-29 02:00:00 23 9 Sur 17 Sur 0 964.5 0.5 60
2019-08-29 01:00:00 23.5 8 Sur 15 Sur 0 964.5 0.9 59
2019-08-29 00:00:00 24.5 6 Sudoeste 12 Sur 0 964.6 1.7 54
2019-08-28 23:00:00 24.6 4 Sur 12 Sur 0 964 1.6 53
2019-08-28 22:00:00 25.1 3 Sudoeste 6 Norte 0 963.6 1.1 45
2019-08-28 21:00:00 27.8 4 Norte 10 Norte 0 962.9 0.3 34
2019-08-28 20:00:00 30.2 5 Norte 15 Norte 0 962.4 -0.4 27
2019-08-28 19:00:00 30.7 7 Norte 18 Norte 0 962.5 -0.6 25
2019-08-28 18:00:00 31.3 6 Nordeste 20 Nordeste 0 962.6 -1.1 24
2019-08-28 17:00:00 30.7 8 Norte 21 Norte 0 962.8 -1.3 25
2019-08-28 16:00:00 30.8 11 Noroeste 19 Noroeste 0 963.1 -1.4 26
2019-08-28 15:00:00 29.8 6 Nordeste 15 Nordeste 0 963.7 -1.1 29
2019-08-28 14:00:00 28.3 7 Norte 17 Norte 0 964.1 -0.5 33
2019-08-28 13:00:00 27.6 5 Noroeste 11 Norte 0 964.5 0 38
2019-08-28 12:00:00 26 5 Norte 9 Oeste 0 964.8 0.2 44
2019-08-28 11:00:00 25 4 Sudeste 10 Este 0 964.6 0.3 48
2019-08-28 10:00:00 22.7 3 Sur 13 Sur 0 964.5 0.7 59
2019-08-28 09:00:00 18.9 8 Sur 13 Sudoeste 0 964.6 1.1 75
2019-08-28 08:00:00 16.8 4 Sur 8 Sudoeste 0 964.3 0.8 83
2019-08-28 07:00:00 16.8 5 Sudoeste 17 Sudoeste 0 963.8 0 82
2019-08-28 06:00:00 17.1 9 Sudoeste 15 Sudoeste 0 963.5 -0.5 82
2019-08-28 05:00:00 17.4 6 Sudoeste 14 Sudoeste 0 963.5 -0.4 82
2019-08-28 04:00:00 17.2 3 Sudoeste 9 Sudoeste 0 963.8 0 86
2019-08-28 03:00:00 17.9 6 Sur 10 Oeste 0 964 0.2 85
2019-08-28 02:00:00 18.1 6 Sudoeste 13 Oeste 0 963.9 0.6 87
2019-08-28 01:00:00 18.5 9 Oeste 12 Oeste 0 963.8 0.7 86
2019-08-28 00:00:00 19.6 6 Nordeste 12 Nordeste 0 963.8 1.4 81
2019-08-27 23:00:00 20 3 Sur 10 Noroeste 0 963.3 1.2 81
2019-08-27 22:00:00 21.3 0 Calma 7 Norte 0 963.1 1.5 74
2019-08-27 21:00:00 22.9 2 Oeste 10 Norte 0 962.4 0.9 59
2019-08-27 20:00:00 24.2 3 Oeste 14 Nordeste 0 962.1 0.7 51
2019-08-27 19:00:00 24.8 9 Este 23 Este 0 961.6 -0.3 52
2019-08-27 18:00:00 25.8 14 Este 30 Este 0 961.5 -0.9 53
2019-08-27 17:00:00 28.4 5 Nordeste 18 Nordeste 0 961.4 -1.4 38
2019-08-27 16:00:00 28.3 5 Este 17 Este 0 961.9 -1.3 38
2019-08-27 15:00:00 25.9 6 Sudeste 22 Este 0 962.4 -1.5 47
2019-08-27 14:00:00 24.6 5 Sudeste 13 Este 0 962.8 -0.8 60
2019-08-27 13:00:00 24.1 5 Este 16 Este 0 963.2 -0.1 63
2019-08-27 12:00:00 23.3 6 Nordeste 14 Este 0 963.9 1.3 61
2019-08-27 11:00:00 22.5 4 Este 9 Sudeste 0 963.6 1.7 61
2019-08-27 10:00:00 20.8 3 Este 17 Sur 0 963.3 1.8 68
2019-08-27 09:00:00 18.2 12 Sur 19 Sur 0 962.6 -0.9 75
2019-08-27 08:00:00 16.4 6 Sudoeste 13 Sudeste 0 961.9 -1.7 89
2019-08-27 07:00:00 16.5 9 Este 17 Este 1.4 961.5 -1.3 94
2019-08-27 06:00:00 17.9 9 Sur 26 Sudoeste 3.4 963.5 0.4 80
2019-08-27 05:00:00 19.2 14 Sudoeste 24 Sudoeste 0.4 963.6 0.2 74
2019-08-27 04:00:00 20.5 7 Sur 25 Sudeste 0.2 962.8 1.4 68
2019-08-27 03:00:00 21.9 19 Sudeste 35 Sudeste 0.2 963.1 2.1 56
2019-08-27 02:00:00 23.5 17 Sudeste 36 Sudeste 0.2 963.4 2.1 47
2019-08-27 01:00:00 22.8 4 Sur 14 Sur 0 961.4 0.5 42
2019-08-27 00:00:00 23.3 5 Norte 26 Este 0 961 1 50
2019-08-26 23:00:00 23.9 19 Sudeste 48 Sudeste 0 961.3 1.3 50
2019-08-26 22:00:00 24.6 21 Sudeste 44 Sudeste 0 960.9 0.1 47
2019-08-26 21:00:00 25.5 23 Sudeste 53 Sudeste 0 960 -0.7 38
2019-08-26 20:00:00 27 28 Sudeste 47 Sur 0 960 -1 34
2019-08-26 19:00:00 28.7 25 Sudeste 47 Sudeste 0 960.8 -0.9 30
2019-08-26 18:00:00 29.9 21 Sudeste 40 Sudeste 0 960.7 -2.1 28
2019-08-26 17:00:00 30.4 17 Sudeste 35 Sudeste 0 961 -2.2 26
2019-08-26 16:00:00 30.1 12 Sudeste 30 Sudeste 0 961.7 -1.7 29
2019-08-26 15:00:00 29.4 17 Sudeste 34 Sudeste 0 962.8 -0.4 31
2019-08-26 14:00:00 28.6 17 Sudeste 34 Sur 0 963.2 -0.2 33
2019-08-26 13:00:00 29.1 18 Sudeste 34 Sudeste 0 963.4 0 30
2019-08-26 12:00:00 29.6 17 Sudeste 33 Sudeste 0 963.2 -0.4 29
2019-08-26 11:00:00 28.3 10 Sudeste 22 Sudeste 0 963.4 0.4 32
2019-08-26 10:00:00 25.3 10 Sudeste 17 Sudeste 0 963.4 0.6 39
2019-08-26 09:00:00 22.6 11 Sur 27 Sur 0 963.6 1 46
2019-08-26 08:00:00 22.5 19 Sur 31 Sur 0 963 0 46
2019-08-26 07:00:00 22.1 17 Sur 34 Sur 0 962.8 -0.3 47
2019-08-26 06:00:00 22.3 15 Sur 30 Sur 0 962.6 -0.6 44
2019-08-26 05:00:00 22.7 13 Sur 28 Sur 0 963 0 40
2019-08-26 04:00:00 22.9 12 Sudeste 28 Sudeste 0 963.1 0.1 35
2019-08-26 03:00:00 23.4 15 Sudeste 27 Sudeste 0 963.2 0.5 33
2019-08-26 02:00:00 24.3 12 Sudeste 35 Sur 0 963 0.1 31
2019-08-26 01:00:00 24.1 14 Sudeste 41 Sur 0 963 0.3 37
2019-08-26 00:00:00 25 21 Sur 43 Sur 0 962.7 0.6 36
2019-08-25 23:00:00 25.6 22 Sur 41 Sudeste 0 962.9 1.1 37
2019-08-25 22:00:00 26.5 17 Sur 38 Sur 0 962.7 1 33
2019-08-25 21:00:00 27.8 15 Sudeste 32 Sudeste 0 962.1 0.6 28
2019-08-25 20:00:00 30.2 18 Sudeste 33 Sudeste 0 961.8 0.3 20
2019-08-25 19:00:00 32.1 18 Sudeste 34 Sudeste 0 961.7 0 16
2019-08-25 18:00:00 33.1 19 Sudeste 39 Sur 0 961.5 -0.8 20
2019-08-25 17:00:00 33 20 Sudeste 35 Sudeste 0 961.5 -1.5 20
2019-08-25 16:00:00 35.9 11 Nordeste 24 Nordeste 0 961.7 -2 14
2019-08-25 15:00:00 33 14 Norte 28 Norte 0 962.3 -2.1 17
2019-08-25 14:00:00 32.4 12 Norte 22 Norte 0 963 -2 19
2019-08-25 13:00:00 33.1 5 Este 23 Este 0 963.7 -1.4 16
2019-08-25 12:00:00 30.9 12 Sudeste 20 Sudeste 0 964.4 -0.5 18
2019-08-25 11:00:00 29.3 6 Sudeste 12 Sudoeste 0 965 0.5 22
2019-08-25 10:00:00 25.8 6 Sur 13 Sudoeste 0 965.1 0.7 29
2019-08-25 09:00:00 21.7 10 Sudoeste 14 Sudoeste 0 964.9 1 40
2019-08-25 08:00:00 19 2 Oeste 12 Sur 0 964.5 0.7 49
2019-08-25 07:00:00 19.9 4 Sudoeste 17 Sudoeste 0 964.4 0.7 49
2019-08-25 06:00:00 20.8 11 Sudoeste 19 Sudoeste 0 963.9 -0.1 47
2019-08-25 05:00:00 21.7 8 Sudoeste 26 Sur 0 963.8 -0.2 46
2019-08-25 04:00:00 23 14 Sur 33 Sur 0 963.7 -0.5 41
2019-08-25 03:00:00 23.5 18 Sur 32 Sur 0 964 -0.1 44
2019-08-25 02:00:00 24.4 19 Sur 36 Sur 0 964 0 43
2019-08-25 01:00:00 24.6 16 Sur 35 Sur 0 964.2 0.5 40
2019-08-25 00:00:00 25.5 16 Sur 35 Sudeste 0 964.1 0.9 38
2019-08-24 23:00:00 26.2 15 Sur 32 Sur 0 964 0.7 35
2019-08-24 22:00:00 26.9 13 Sur 32 Sudeste 0 963.7 0.6 33
2019-08-24 21:00:00 28.3 14 Sur 27 Sur 0 963.2 -0.1 33
2019-08-24 20:00:00 30.7 13 Sudeste 26 Sur 0 963.3 -0.2 28
2019-08-24 19:00:00 33.6 9 Norte 18 Norte 0 963.1 -0.9 17
2019-08-24 18:00:00 34.4 4 Noroeste 20 Nordeste 0 963.3 -1.1 15
2019-08-24 17:00:00 34.2 6 Norte 23 Nordeste 0 963.5 -1.4 17
2019-08-24 16:00:00 34.8 9 Este 37 Nordeste 0 964 -1.3 12
2019-08-24 15:00:00 33.2 6 Nordeste 22 Nordeste 0 964.4 -1.3 21
2019-08-24 14:00:00 32.5 7 Este 17 Este 0 964.9 -1.1 23
2019-08-24 13:00:00 31 6 Nordeste 16 Este 0 965.3 -0.5 25
2019-08-24 12:00:00 31 5 Este 13 Sudeste 0 965.7 -0.1 25
2019-08-24 11:00:00 28.3 6 Sudeste 12 Este 0 966 0.3 28
2019-08-24 10:00:00 24.9 6 Sudeste 10 Sur 0 965.8 0.3 34
2019-08-24 09:00:00 21.1 5 Sur 14 Sudoeste 0 965.8 0.4 46
2019-08-24 08:00:00 19.1 8 Sudoeste 17 Sudoeste 0 965.7 0.6 54
2019-08-24 07:00:00 19.1 11 Sudoeste 17 Oeste 0 965.5 0.2 54
2019-08-24 06:00:00 20.5 5 Sudoeste 18 Sudoeste 0 965.4 0.2 49
2019-08-24 05:00:00 21 9 Sur 18 Sur 0 965.1 -0.2 48
2019-08-24 04:00:00 21.1 7 Sur 18 Sudoeste 0 965.3 0.2 49
2019-08-24 03:00:00 21.9 11 Sudoeste 23 Sur 0 965.2 0.2 47
2019-08-24 02:00:00 23.6 11 Sur 28 Sur 0 965.3 0.3 41
2019-08-24 01:00:00 24.4 11 Sur 31 Sur 0 965.1 0.2 39
2019-08-24 00:00:00 24.7 17 Sur 36 Sur 0 965 0.6 42
2019-08-23 23:00:00 25.1 15 Sur 31 Sudeste 0 965 0.9 45
2019-08-23 22:00:00 26.2 12 Sur 27 Sur 0 964.9 1.1 41
2019-08-23 21:00:00 27.5 15 Sudeste 27 Sudeste 0 964.4 0.3 39
2019-08-23 20:00:00 29.3 17 Sudeste 30 Sudeste 0 964.1 -0.3 34
2019-08-23 19:00:00 32.2 10 Norte 24 Nordeste 0 963.8 -1.1 19
2019-08-23 18:00:00 32.4 13 Norte 29 Nordeste 0 964.1 -1.4 20
2019-08-23 17:00:00 32.7 9 Nordeste 22 Nordeste 0 964.4 -1.6 20
2019-08-23 16:00:00 32.6 8 Nordeste 21 Nordeste 0 964.9 -1.8 20
2019-08-23 15:00:00 32.8 8 Este 21 Este 0 965.5 -1.8 20
2019-08-23 14:00:00 30.6 8 Norte 18 Norte 0 966 -1.7 23
2019-08-23 13:00:00 29.3 6 Norte 17 Nordeste 0 966.7 -1.1 27
2019-08-23 12:00:00 28.2 4 Norte 9 Este 0 967.3 -0.5 33
2019-08-23 11:00:00 26 4 Sur 8 Sudeste 0 967.7 0.3 42
2019-08-23 10:00:00 22.7 4 Este 9 Sudeste 0 967.8 0.8 56
2019-08-23 09:00:00 19.1 6 Sur 9 Sudoeste 0 967.8 1.1 71
2019-08-23 08:00:00 16.7 5 Oeste 10 Oeste 0 967.4 0.7 80
2019-08-23 07:00:00 17.2 8 Oeste 13 Oeste 0 967 0.2 78
2019-08-23 06:00:00 18.6 11 Oeste 15 Oeste 0 966.7 -0.1 74
2019-08-23 05:00:00 20 8 Sudoeste 18 Sudoeste 0 966.7 -0.1 66
2019-08-23 04:00:00 19.8 11 Sudoeste 19 Sudoeste 0 966.8 0.1 68
2019-08-23 03:00:00 20.7 11 Sudoeste 17 Sudoeste 0 966.8 0 65
2019-08-23 02:00:00 21.1 9 Sudoeste 14 Sudoeste 0 966.8 0.1 61
2019-08-23 01:00:00 21.8 6 Sudoeste 9 Sudoeste 0 966.7 0.4 56
2019-08-23 00:00:00 22.1 5 Sudoeste 9 Sudoeste 0 966.8 1.1 56
2019-08-22 23:00:00 21.3 4 Sudoeste 8 Oeste 0 966.7 1.2 40
2019-08-22 22:00:00 23.1 2 Oeste 4 Oeste 0 966.3 1 34
2019-08-22 21:00:00 26.1 4 Norte 11 Norte 0 965.7 -0.1 29
2019-08-22 20:00:00 28.3 9 Norte 21 Norte 0 965.5 -0.5 26
2019-08-22 19:00:00 29.3 10 Norte 22 Norte 0 965.3 -1.1 25
2019-08-22 18:00:00 30 11 Norte 21 Norte 0 965.8 -1 25
2019-08-22 17:00:00 29.9 6 Norte 23 Norte 0 966 -1.2 25
2019-08-22 16:00:00 29.4 8 Norte 21 Norte 0 966.4 -1.4 25
2019-08-22 15:00:00 28.2 8 Norte 19 Norte 0 966.8 -1.4 28
2019-08-22 14:00:00 27.4 8 Nordeste 17 Nordeste 0 967.2 -1.1 29
2019-08-22 13:00:00 26.5 10 Noroeste 15 Noroeste 0 967.8 -0.6 30
2019-08-22 12:00:00 25.5 4 Noroeste 12 Nordeste 0 968.2 -0.1 33
2019-08-22 11:00:00 24 4 Nordeste 9 Noroeste 0 968.3 0.4 37
2019-08-22 10:00:00 21.4 3 Nordeste 15 Sudoeste 0 968.4 0.9 44
2019-08-22 09:00:00 18.4 8 Sudoeste 15 Sudoeste 0 968.3 0.9 65
2019-08-22 08:00:00 16 13 Sudoeste 18 Sudoeste 0 967.9 0.8 83
2019-08-22 07:00:00 15.4 3 Oeste 10 Sudoeste 0 967.5 0.6 82
2019-08-22 06:00:00 16 4 Oeste 9 Sudoeste 0 967.4 0.7 78
2019-08-22 05:00:00 17.1 0 Calma 11 Oeste 0 967.1 0.4 78
2019-08-22 04:00:00 18.7 9 Oeste -- -- 0 966.9 0.1 73
2019-08-22 03:00:00 19.4 6 Sudoeste 17 Sudoeste 0 966.7 -0.1 68
2019-08-22 02:00:00 20 13 Sudoeste 19 Sudoeste 0 966.7 0.6 62
2019-08-22 01:00:00 20.2 9 Sudoeste 14 Oeste 0 966.8 1.1 60
2019-08-22 00:00:00 20.4 9 Oeste 16 Sudoeste 0 966.8 1.3 61
2019-08-21 23:00:00 21.1 5 Oeste 15 Sur 0 966.1 0.9 57
2019-08-21 22:00:00 21.3 9 Sur 21 Sur 0 965.7 1 58
2019-08-21 21:00:00 21.3 12 Sur 20 Sur 0 965.5 0.4 67
2019-08-21 20:00:00 22.2 7 Sur 13 Sudeste 0 965.2 0 71
2019-08-21 19:00:00 23.3 4 Sudeste 10 Sudoeste 0.2 964.7 -0.1 72
2019-08-21 18:00:00 24.7 8 Noroeste 17 Noroeste 0 965.1 -0.7 58
2019-08-21 17:00:00 26.6 10 Norte 21 Norte 0 965.2 -1.1 41
2019-08-21 16:00:00 28.3 10 Norte 19 Nordeste 0 964.8 -2 37
2019-08-21 15:00:00 27 9 Norte 18 Norte 0 965.8 -1.7 40
2019-08-21 14:00:00 26.2 7 Norte 17 Norte 0 966.3 -1.4 42
2019-08-21 13:00:00 25.5 8 Norte 16 Norte 0 966.8 -1.1 45
2019-08-21 12:00:00 24.1 7 Norte 16 Norte 0 967.5 -0.6 48
2019-08-21 11:00:00 23.2 5 Nordeste 10 Norte 0 967.7 -0.4 53
2019-08-21 10:00:00 20.6 3 Norte 6 Sudeste 0 967.9 -0.2 62
2019-08-21 09:00:00 18.3 4 Sudeste 9 Este 0 968.1 0.1 74
2019-08-21 08:00:00 17.5 0 Calma 5 Este 0 968.1 -0.2 77
2019-08-21 07:00:00 17.6 3 Norte 4 Noroeste 0 968.1 -0.2 76
2019-08-21 06:00:00 17.5 0 Calma 5 Este 0 968 -0.5 78
2019-08-21 05:00:00 17.5 3 Este 7 Este 0 968.3 -0.2 83
2019-08-21 04:00:00 18 3 Noroeste 6 Norte 0 968.3 0 83
2019-08-21 03:00:00 18.3 0 Calma 12 Noroeste 0 968.5 0.1 82
2019-08-21 02:00:00 19.1 7 Noroeste 12 Noroeste 0 968.5 0.2 85
2019-08-21 01:00:00 19.6 7 Sur 10 Sur 0 968.3 0.4 78
2019-08-21 00:00:00 19.5 6 Sur 13 Sudoeste 0 968.4 0.6 77